Time;durP1;ratioP1;P1;durP2;ratioP2;P2;SDS_P1;SDS_P2;PMS_P1;PMS_P2;Temp;Humidity;BMP_temperature;BMP_pressure;BME280_temperature;BME280_humidity;BME280_pressure;Samples;Min_cycle;Max_cycle;Signal;HPM_P1;HPM_P2
2022/04/21 00:01:34;;;;;;;5.97;3.30;;;10.30;83.10;;;;;;5078038;28;20032;-70
2022/04/21 00:03:59;;;;;;;5.20;3.20;;;10.30;83.50;;;;;;5076746;28;20032;-70
2022/04/21 00:06:25;;;;;;;6.67;3.20;;;10.30;83.90;;;;;;5076912;28;20119;-70
2022/04/21 00:08:51;;;;;;;5.57;3.30;;;10.30;84.50;;;;;;5095772;28;20028;-70
2022/04/21 00:11:16;;;;;;;4.50;3.37;;;10.20;85.10;;;;;;5095981;28;20035;-70
2022/04/21 00:13:42;;;;;;;4.80;3.38;;;10.20;86.00;;;;;;5077832;28;20404;-70
2022/04/21 00:16:08;;;;;;;7.43;3.57;;;10.20;86.60;;;;;;5076654;28;20032;-70
2022/04/21 00:18:33;;;;;;;6.35;3.38;;;10.20;87.40;;;;;;5076491;28;20020;-70
2022/04/21 00:21:01;;;;;;;5.13;3.67;;;10.20;88.00;;;;;;5094371;28;20036;-69
2022/04/21 00:23:27;;;;;;;6.75;3.10;;;10.20;88.80;;;;;;5076452;28;20028;-70
2022/04/21 00:26:03;;;;;;;4.80;3.35;;;10.10;89.50;;;;;;5075813;28;20024;-69
2022/04/21 00:28:29;;;;;;;5.07;3.40;;;10.10;90.10;;;;;;5093822;28;20024;-70
2022/04/21 00:30:55;;;;;;;7.80;3.55;;;10.10;90.60;;;;;;5093967;28;20020;-70
2022/04/21 00:33:21;;;;;;;4.70;3.25;;;10.10;90.90;;;;;;5075385;28;20483;-70
2022/04/21 00:35:47;;;;;;;6.72;3.45;;;10.00;91.20;;;;;;5076494;28;20340;-70
2022/04/21 00:38:13;;;;;;;8.82;3.45;;;10.00;91.70;;;;;;5075491;28;20067;-70
2022/04/21 00:40:38;;;;;;;6.63;3.67;;;10.00;92.10;;;;;;5075395;28;20392;-70
2022/04/21 00:43:04;;;;;;;4.68;3.10;;;9.90;92.30;;;;;;5075275;28;20292;-69
2022/04/21 00:45:31;;;;;;;6.43;3.40;;;9.90;92.80;;;;;;5093325;28;20032;-70
2022/04/21 00:47:58;;;;;;;6.60;2.92;;;9.90;93.20;;;;;;5093393;28;20030;-70
2022/04/21 00:50:44;;;;;;;3.85;3.17;;;9.90;93.50;;;;;;5075129;28;20055;-70
2022/04/21 00:53:10;;;;;;;5.68;3.38;;;9.80;94.10;;;;;;5075121;28;20032;-71
2022/04/21 00:55:38;;;;;;;6.37;3.30;;;9.80;94.40;;;;;;5077634;28;20090;-69
2022/04/21 00:58:05;;;;;;;4.20;3.28;;;9.70;94.80;;;;;;5093186;28;20020;-70
2022/04/21 01:00:31;;;;;;;6.43;3.17;;;9.70;95.30;;;;;;5075040;28;20024;-69
2022/04/21 01:02:58;;;;;;;6.77;3.07;;;9.60;95.80;;;;;;5075427;28;20039;-70
2022/04/21 01:05:26;;;;;;;5.40;3.20;;;9.60;96.30;;;;;;5093876;28;20020;-69
2022/04/21 01:07:56;;;;;;;7.45;3.40;;;9.60;96.60;;;;;;5074702;28;20097;-69
2022/04/21 01:10:24;;;;;;;6.30;3.60;;;9.50;97.10;;;;;;5097189;28;20065;-69
2022/04/21 01:12:50;;;;;;;6.95;3.83;;;9.50;97.50;;;;;;5078687;28;20024;-71
2022/04/21 01:15:16;;;;;;;8.68;3.65;;;9.40;97.90;;;;;;5097152;28;20016;-71
2022/04/21 01:17:41;;;;;;;9.00;3.47;;;9.30;98.30;;;;;;5079208;28;20383;-70
2022/04/21 01:20:10;;;;;;;7.20;4.03;;;9.30;98.70;;;;;;5078830;28;20034;-69
2022/04/21 01:22:37;;;;;;;4.05;3.25;;;9.20;99.00;;;;;;5078587;28;20086;-70
2022/04/21 01:25:03;;;;;;;5.15;3.45;;;9.20;99.40;;;;;;5078790;28;20035;-70
2022/04/21 01:27:31;;;;;;;5.05;3.38;;;9.20;99.70;;;;;;5096926;28;20020;-70
2022/04/21 01:29:57;;;;;;;6.75;3.90;;;9.20;99.90;;;;;;5078498;28;20471;-70
2022/04/21 01:32:23;;;;;;;4.88;3.72;;;9.20;99.90;;;;;;5078489;28;20032;-70
2022/04/21 01:34:48;;;;;;;6.60;3.90;;;9.10;99.90;;;;;;5097245;28;20444;-70
2022/04/21 01:42:42;;;;;;;8.52;3.55;;;9.00;99.90;;;;;;5097835;28;20127;-70
2022/04/21 01:45:08;;;;;;;6.65;3.60;;;9.00;99.90;;;;;;5096931;28;20058;-70
2022/04/21 01:47:34;;;;;;;5.10;3.58;;;9.10;99.90;;;;;;5096687;28;20024;-70
2022/04/21 01:49:59;;;;;;;4.30;3.30;;;9.00;99.90;;;;;;5077935;28;20396;-70
2022/04/21 01:52:25;;;;;;;4.70;3.50;;;9.00;99.90;;;;;;5077932;28;20024;-70
2022/04/21 01:54:50;;;;;;;6.30;3.57;;;9.00;99.90;;;;;;5096109;28;20069;-70
2022/04/21 01:57:20;;;;;;;6.07;3.50;;;9.00;99.90;;;;;;5077759;28;20065;-70
2022/04/21 01:59:46;;;;;;;6.57;3.83;;;9.00;99.90;;;;;;5096239;28;20569;-69
2022/04/21 02:02:12;;;;;;;3.90;3.20;;;8.90;99.90;;;;;;5078595;28;20036;-70
2022/04/21 02:04:38;;;;;;;5.90;3.92;;;8.90;99.90;;;;;;5077800;28;20093;-71
2022/04/21 02:07:04;;;;;;;7.83;4.20;;;8.90;99.90;;;;;;5077495;28;20028;-71
2022/04/21 02:09:29;;;;;;;4.97;3.58;;;8.80;99.90;;;;;;5095846;28;20035;-69
2022/04/21 02:11:55;;;;;;;5.90;3.23;;;8.80;99.90;;;;;;5077983;28;20395;-70
2022/04/21 02:14:21;;;;;;;6.63;3.45;;;8.70;99.90;;;;;;5077642;28;20024;-70
2022/04/21 02:16:46;;;;;;;6.10;3.80;;;8.70;99.90;;;;;;5077546;28;20044;-70
2022/04/21 02:19:13;;;;;;;5.17;3.60;;;8.70;99.90;;;;;;5098249;28;20496;-70
2022/04/21 02:21:39;;;;;;;;;;;8.70;99.90;;;;;;5096110;28;20024;-70
2022/04/21 02:24:05;;;;;;;6.30;4.00;;;8.70;99.90;;;;;;5095634;28;19904;-70
2022/04/21 02:26:31;;;;;;;6.47;3.85;;;8.70;99.90;;;;;;5077436;28;20024;-70
2022/04/21 02:28:56;;;;;;;7.47;3.58;;;8.70;99.90;;;;;;5095636;28;20113;-71
2022/04/21 02:31:22;;;;;;;7.93;3.60;;;8.60;99.90;;;;;;5096349;28;20036;-71
2022/04/21 02:33:48;;;;;;;5.83;3.80;;;8.60;99.90;;;;;;5077539;28;20017;-69
2022/04/21 02:36:13;;;;;;;5.30;4.13;;;8.60;99.90;;;;;;5077221;28;20530;-70
2022/04/21 02:38:39;;;;;;;7.53;3.77;;;8.50;99.90;;;;;;5077222;28;20127;-69
2022/04/21 02:41:04;;;;;;;6.07;3.83;;;8.40;99.90;;;;;;5098172;28;20376;-70
2022/04/21 02:43:30;;;;;;;7.33;4.13;;;8.40;99.90;;;;;;5077452;28;20027;-70
2022/04/21 02:45:55;;;;;;;8.20;4.80;;;8.30;99.90;;;;;;5077214;28;20032;-70
2022/04/21 02:48:21;;;;;;;7.07;4.53;;;8.20;99.90;;;;;;5095422;28;20388;-69
2022/04/21 02:50:49;;;;;;;5.90;4.10;;;8.10;99.90;;;;;;5077103;28;20096;-70
2022/04/21 02:53:15;;;;;;;8.98;4.97;;;8.10;99.90;;;;;;5076936;28;20028;-70
2022/04/21 02:58:24;;;;;;;6.57;4.60;;;8.00;99.90;;;;;;5095351;28;20039;-69
2022/04/21 03:00:51;;;;;;;7.60;4.23;;;8.00;99.90;;;;;;5096796;28;20020;-69
2022/04/21 03:03:16;;;;;;;;;;;7.90;99.90;;;;;;5077662;28;20036;-69
2022/04/21 03:05:42;;;;;;;7.35;5.18;;;7.90;99.90;;;;;;5076623;28;20279;-69
2022/04/21 03:08:08;;;;;;;12.33;7.00;;;7.80;99.90;;;;;;5094687;28;20027;-70
2022/04/21 03:10:33;;;;;;;5.93;4.60;;;7.80;99.90;;;;;;5076233;28;20051;-70
2022/04/21 03:12:59;;;;;;;6.80;4.77;;;7.80;99.90;;;;;;5076421;28;20483;-70
2022/04/21 03:15:25;;;;;;;9.60;5.87;;;7.70;99.90;;;;;;5094587;28;20013;-70
2022/04/21 03:17:51;;;;;;;7.10;5.28;;;7.70;99.90;;;;;;5094704;28;20094;-70
2022/04/21 03:25:45;;;;;;;9.00;5.30;;;7.60;99.90;;;;;;5095065;28;20031;-69
2022/04/21 03:28:11;;;;;;;11.50;5.33;;;7.60;99.90;;;;;;5076192;28;20024;-69
2022/04/21 03:30:37;;;;;;;6.95;4.82;;;7.70;99.90;;;;;;5075842;28;20123;-69
2022/04/21 03:33:03;;;;;;;7.78;5.30;;;7.70;99.90;;;;;;5076419;28;20395;-69
2022/04/21 03:35:29;;;;;;;5.93;4.73;;;7.70;99.90;;;;;;5076579;28;20123;-70
2022/04/21 03:37:54;;;;;;;6.33;4.90;;;7.70;99.90;;;;;;5094569;28;20289;-70
2022/04/21 03:40:20;;;;;;;7.10;5.43;;;7.70;99.90;;;;;;5075973;28;20473;-70
2022/04/21 03:42:46;;;;;;;7.50;4.83;;;7.70;99.90;;;;;;5094236;28;20056;-70
2022/04/21 03:45:11;;;;;;;9.38;5.07;;;7.60;99.90;;;;;;5094112;28;20473;-69
2022/04/21 03:47:38;;;;;;;7.87;5.10;;;7.60;99.90;;;;;;5093884;28;20040;-69
2022/04/21 03:50:04;;;;;;;;;;;7.60;99.90;;;;;;5094284;28;20389;-70
2022/04/21 03:52:30;;;;;;;9.05;5.43;;;7.50;99.90;;;;;;5075721;28;19915;-70
2022/04/21 03:54:55;;;;;;;9.27;5.70;;;7.50;99.90;;;;;;5094126;28;20028;-70
2022/04/21 03:57:21;;;;;;;7.53;5.20;;;7.50;99.90;;;;;;5094427;28;20028;-69
2022/04/21 03:59:46;;;;;;;8.20;5.43;;;7.40;99.90;;;;;;5094457;28;20038;-70
2022/04/21 04:02:12;;;;;;;7.27;5.30;;;7.40;99.90;;;;;;5075953;28;20070;-69
2022/04/21 04:04:38;;;;;;;7.57;5.60;;;7.30;99.90;;;;;;5076109;28;20081;-70
2022/04/21 04:12:36;;;;;;;6.85;5.45;;;7.10;99.90;;;;;;5094013;28;20438;-68
2022/04/21 04:15:04;;;;;;;6.00;5.40;;;7.00;99.90;;;;;;5093542;28;20092;-70
2022/04/21 04:17:30;;;;;;;8.43;5.68;;;6.90;99.90;;;;;;5075141;28;20024;-70
2022/04/21 04:19:56;;;;;;;7.75;5.65;;;6.90;99.90;;;;;;5077162;28;20026;-69
2022/04/21 04:22:21;;;;;;;6.87;5.63;;;6.90;99.90;;;;;;5075216;28;20036;-70
2022/04/21 04:24:47;;;;;;;9.17;5.93;;;6.90;99.90;;;;;;5093278;28;20028;-70
2022/04/21 04:27:13;;;;;;;9.03;6.23;;;6.90;99.90;;;;;;5093702;28;20020;-71
2022/04/21 04:29:38;;;;;;;7.40;5.85;;;6.90;99.90;;;;;;5093532;28;20054;-70
2022/04/21 04:32:04;;;;;;;6.90;5.90;;;6.80;99.90;;;;;;5075159;28;20055;-70
2022/04/21 04:34:30;;;;;;;14.32;6.43;;;6.80;99.90;;;;;;5093780;28;20496;-70
2022/04/21 04:36:56;;;;;;;7.33;5.70;;;6.80;99.90;;;;;;5075659;28;20024;-70
2022/04/21 04:39:21;;;;;;;8.77;5.90;;;6.80;99.90;;;;;;5093475;28;20023;-70
2022/04/21 04:44:31;;;;;;;8.88;6.10;;;6.70;99.90;;;;;;5096970;28;20499;-69
2022/04/21 04:46:57;;;;;;;10.40;6.77;;;6.70;99.90;;;;;;5079472;28;20032;-70
2022/04/21 04:49:23;;;;;;;8.35;6.07;;;6.70;99.90;;;;;;5079225;28;20073;-70
2022/04/21 04:51:48;;;;;;;8.45;5.88;;;6.70;99.90;;;;;;5097159;28;20028;-71
2022/04/21 04:54:15;;;;;;;7.13;6.10;;;6.60;99.90;;;;;;5079401;28;20095;-70
2022/04/21 04:56:43;;;;;;;9.70;6.55;;;6.70;99.90;;;;;;5078947;28;20029;-70
2022/04/21 04:59:09;;;;;;;10.10;6.80;;;6.70;99.90;;;;;;5078897;28;20020;-69
2022/04/21 05:01:43;;;;;;;9.93;6.78;;;6.60;99.90;;;;;;5097529;28;20127;-70
2022/04/21 05:04:13;;;;;;;8.80;6.55;;;6.60;99.90;;;;;;5082733;28;20077;-70
2022/04/21 05:06:43;;;;;;;9.02;6.20;;;6.60;99.90;;;;;;5097272;28;20039;-69
2022/04/21 05:09:11;;;;;;;11.27;6.72;;;6.60;99.90;;;;;;5097826;28;20058;-70
2022/04/21 05:11:38;;;;;;;9.18;6.68;;;6.60;99.90;;;;;;5097237;28;20456;-70
2022/04/21 05:14:03;;;;;;;;;;;6.60;99.90;;;;;;5097873;28;20035;-70
2022/04/21 05:16:29;;;;;;;8.98;6.80;;;6.70;99.90;;;;;;5097057;28;19911;-69
2022/04/21 05:18:56;;;;;;;11.23;6.97;;;6.70;99.90;;;;;;5097646;28;20027;-69
2022/04/21 05:21:23;;;;;;;10.07;6.68;;;6.80;99.90;;;;;;5079991;28;20028;-70
2022/04/21 05:23:55;;;;;;;12.20;7.15;;;6.80;99.90;;;;;;5097310;28;20020;-70
2022/04/21 05:26:21;;;;;;;12.23;6.93;;;6.90;99.90;;;;;;5097148;28;20023;-71
2022/04/21 05:28:47;;;;;;;13.70;7.20;;;6.90;99.90;;;;;;5097158;28;20036;-71
2022/04/21 05:31:12;;;;;;;10.50;7.55;;;7.00;99.90;;;;;;5098231;28;20027;-70
2022/04/21 05:33:38;;;;;;;11.40;7.28;;;7.10;99.90;;;;;;5079676;28;20035;-69
2022/04/21 05:36:05;;;;;;;9.88;7.13;;;7.10;99.90;;;;;;5079496;28;20020;-67
2022/04/21 05:38:32;;;;;;;9.95;7.05;;;7.20;99.90;;;;;;5098088;28;20051;-67
2022/04/21 05:40:58;;;;;;;8.32;7.05;;;7.20;99.90;;;;;;5083794;28;20024;-68
2022/04/21 05:43:41;;;;;;;12.35;6.82;;;7.30;99.90;;;;;;5104756;28;20055;-67
2022/04/21 05:46:08;;;;;;;8.95;6.82;;;7.40;99.90;;;;;;5101968;28;20093;-67
2022/04/21 05:48:35;;;;;;;9.63;6.70;;;7.40;99.90;;;;;;5105594;28;20039;-69
2022/04/21 05:51:01;;;;;;;40.38;9.23;;;7.50;99.90;;;;;;5098531;28;20054;-70
2022/04/21 05:53:27;;;;;;;18.65;8.50;;;7.60;99.90;;;;;;5100901;28;20077;-70
2022/04/21 05:55:53;;;;;;;53.15;11.27;;;7.70;99.90;;;;;;5099299;28;20095;-69
2022/04/21 05:58:20;;;;;;;;;;;7.70;99.90;;;;;;5087222;28;20016;-69
2022/04/21 06:00:46;;;;;;;12.63;7.22;;;7.90;99.90;;;;;;5095362;28;19904;-70
2022/04/21 06:03:12;;;;;;;10.35;7.25;;;7.90;99.90;;;;;;5112717;28;20020;-68
2022/04/21 06:05:39;;;;;;;8.85;6.55;;;8.00;99.90;;;;;;5105958;28;20080;-68
2022/04/21 06:08:06;;;;;;;9.93;7.60;;;7.90;99.90;;;;;;5112374;28;20088;-68
2022/04/21 06:10:35;;;;;;;9.18;6.82;;;8.00;99.90;;;;;;5093302;28;20035;-68
2022/04/21 06:13:05;;;;;;;11.77;7.32;;;8.10;99.90;;;;;;5089192;28;20028;-69
2022/04/21 06:15:31;;;;;;;11.27;7.50;;;8.20;99.90;;;;;;5083259;28;20111;-67
2022/04/21 06:17:58;;;;;;;;;;;8.20;99.90;;;;;;5079168;28;20119;-68
2022/04/21 06:20:26;;;;;;;9.90;7.82;;;8.30;99.90;;;;;;5097363;28;19904;-68
2022/04/21 06:22:52;;;;;;;12.68;7.72;;;8.40;99.90;;;;;;5095622;28;20025;-68
2022/04/21 06:25:18;;;;;;;9.68;7.70;;;8.40;99.90;;;;;;5095790;28;20388;-68
2022/04/21 06:27:43;;;;;;;10.73;7.50;;;8.50;99.90;;;;;;5096068;28;20031;-68
2022/04/21 06:30:09;;;;;;;11.07;7.63;;;8.50;99.90;;;;;;5077376;28;20382;-68
2022/04/21 06:32:35;;;;;;;9.88;7.53;;;8.70;99.90;;;;;;5077592;28;20031;-66
2022/04/21 06:35:00;;;;;;;10.13;7.67;;;8.80;99.90;;;;;;5095861;28;20028;-66
2022/04/21 06:37:26;;;;;;;9.63;8.18;;;8.90;99.90;;;;;;5076989;28;20122;-67
2022/04/21 06:39:52;;;;;;;11.07;7.60;;;9.10;99.90;;;;;;5095597;28;20195;-68
2022/04/21 06:42:17;;;;;;;11.73;7.60;;;9.10;99.90;;;;;;5096313;28;20096;-68
2022/04/21 06:50:38;;;;;;;10.60;7.90;;;9.30;99.90;;;;;;5013124;28;20022;-68
2022/04/21 06:53:09;;;;;;;14.77;8.27;;;9.50;99.90;;;;;;5012680;28;20106;-68
2022/04/21 06:55:35;;;;;;;14.10;7.72;;;9.50;99.90;;;;;;4998202;28;20022;-67
2022/04/21 06:58:01;;;;;;;13.95;8.45;;;9.50;99.90;;;;;;5012914;28;20557;-68
2022/04/21 07:00:28;;;;;;;11.88;8.57;;;9.70;99.90;;;;;;5013579;28;20600;-68
2022/04/21 07:02:57;;;;;;;;;;;9.80;99.90;;;;;;5013962;28;20038;-68
2022/04/21 07:05:24;;;;;;;13.05;8.55;;;9.90;99.90;;;;;;5013419;28;20243;-67
2022/04/21 07:07:50;;;;;;;10.80;7.82;;;10.00;99.90;;;;;;5012907;28;20029;-67
2022/04/21 07:10:18;;;;;;;12.02;8.13;;;10.20;99.90;;;;;;5012666;28;20616;-67
2022/04/21 07:12:43;;;;;;;13.43;8.80;;;10.30;99.90;;;;;;5012284;28;20421;-66
2022/04/21 07:15:10;;;;;;;12.90;8.77;;;10.50;99.90;;;;;;5012462;28;20108;-69
2022/04/21 07:17:37;;;;;;;13.88;8.88;;;10.60;99.90;;;;;;4996121;28;20265;-70
2022/04/21 07:20:10;;;;;;;12.90;9.48;;;10.70;99.90;;;;;;5012532;28;20022;-69
2022/04/21 07:22:36;;;;;;;13.45;9.60;;;10.70;99.90;;;;;;5012257;28;20230;-72
2022/04/21 07:25:05;;;;;;;14.13;9.68;;;10.80;99.90;;;;;;5061662;28;20058;-70
2022/04/21 07:27:31;;;;;;;12.02;9.30;;;10.90;99.90;;;;;;5076542;28;20031;-67
2022/04/21 07:29:57;;;;;;;12.07;9.17;;;10.90;99.90;;;;;;5094638;28;20074;-71
2022/04/21 07:32:22;;;;;;;13.73;9.30;;;10.90;99.90;;;;;;5075895;28;20154;-67
2022/04/21 07:34:48;;;;;;;12.87;9.20;;;11.00;99.90;;;;;;5094529;28;20281;-68
2022/04/21 07:37:13;;;;;;;13.03;8.67;;;11.00;99.90;;;;;;5075614;28;20028;-68
2022/04/21 07:39:42;;;;;;;13.63;9.70;;;11.10;99.90;;;;;;5094541;28;20496;-67
2022/04/21 07:42:10;;;;;;;12.32;8.75;;;11.10;99.90;;;;;;5075550;28;20278;-68
2022/04/21 07:44:36;;;;;;;16.00;10.15;;;11.20;99.90;;;;;;5094460;28;20096;-68
2022/04/21 07:47:03;;;;;;;12.25;9.25;;;11.20;99.90;;;;;;5095395;28;20118;-66
2022/04/21 07:49:48;;;;;;;10.48;8.77;;;11.30;99.90;;;;;;5093874;28;20097;-67
2022/04/21 07:55:17;;;;;;;13.73;9.05;;;11.60;99.90;;;;;;5093765;28;20218;-67
2022/04/21 07:57:44;;;;;;;11.90;9.43;;;11.80;99.90;;;;;;5080804;28;20047;-70
2022/04/21 08:00:11;;;;;;;11.57;8.85;;;11.80;99.90;;;;;;5093723;28;20465;-70
2022/04/21 08:02:40;;;;;;;12.98;8.90;;;12.00;99.90;;;;;;5093703;28;20032;-66
2022/04/21 08:05:07;;;;;;;11.13;8.77;;;12.10;99.90;;;;;;5093657;28;20051;-65
2022/04/21 08:07:34;;;;;;;11.13;8.80;;;12.20;99.70;;;;;;5093212;28;20095;-67
2022/04/21 08:10:01;;;;;;;11.50;9.25;;;12.30;99.90;;;;;;5093514;28;20096;-66
2022/04/21 08:12:27;;;;;;;13.00;8.93;;;12.40;99.60;;;;;;5074639;28;20119;-67
2022/04/21 08:14:52;;;;;;;13.45;8.48;;;12.60;99.00;;;;;;5092978;28;20530;-68
2022/04/21 08:17:18;;;;;;;12.83;8.50;;;12.80;98.70;;;;;;5092814;28;20058;-66
2022/04/21 08:19:44;;;;;;;12.23;8.50;;;12.90;97.80;;;;;;5092767;28;20491;-66
2022/04/21 08:22:09;;;;;;;12.03;8.87;;;13.10;97.50;;;;;;5093810;28;20096;-67
2022/04/21 08:32:48;;;;;;;11.05;8.15;;;13.70;95.00;;;;;;5095166;28;20563;-67
2022/04/21 08:35:13;;;;;;;11.93;8.13;;;14.70;93.20;;;;;;5078722;28;20061;-69
2022/04/21 08:37:41;;;;;;;10.02;8.18;;;16.10;90.50;;;;;;5079001;28;20032;-66
2022/04/21 08:40:08;;;;;;;11.95;8.10;;;17.50;84.90;;;;;;5079283;28;20386;-66
2022/04/21 08:42:37;;;;;;;8.50;7.53;;;18.60;78.90;;;;;;5096111;28;20026;-64
2022/04/21 08:45:04;;;;;;;9.38;7.85;;;18.70;76.10;;;;;;5095458;28;20070;-65
2022/04/21 08:47:31;;;;;;;13.23;7.57;;;19.40;73.60;;;;;;5076587;28;20028;-63
2022/04/21 08:50:03;;;;;;;11.70;8.02;;;20.40;69.80;;;;;;5095335;28;20036;-62
2022/04/21 08:52:29;;;;;;;11.30;7.50;;;21.20;67.20;;;;;;5098296;28;20024;-60
2022/04/21 08:54:55;;;;;;;9.85;7.47;;;22.30;63.90;;;;;;5094497;28;20021;-62
2022/04/21 08:57:21;;;;;;;;;;;23.20;61.20;;;;;;5095386;28;20024;-63
2022/04/21 08:59:47;;;;;;;8.10;7.30;;;23.50;59.10;;;;;;5094783;28;19957;-63
2022/04/21 09:02:12;;;;;;;9.88;7.55;;;23.90;57.80;;;;;;5093995;28;20019;-63
2022/04/21 09:04:38;;;;;;;8.75;7.93;;;24.60;56.30;;;;;;5094060;28;20026;-62
2022/04/21 09:07:42;;;;;;;10.40;7.68;;;24.00;56.10;;;;;;5093654;28;20020;-63
2022/04/21 09:10:13;;;;;;;10.55;8.50;;;24.60;55.90;;;;;;5031887;28;20491;-63
2022/04/21 09:12:50;;;;;;;7.40;6.70;;;25.80;54.60;;;;;;5032082;28;20041;-63
2022/04/21 09:15:19;;;;;;;7.88;7.07;;;26.30;52.10;;;;;;5031611;28;20034;-68
2022/04/21 09:17:53;;;;;;;8.25;7.10;;;25.70;51.70;;;;;;5030687;28;20061;-66
2022/04/21 09:20:20;;;;;;;8.75;7.25;;;25.40;52.10;;;;;;5031009;28;20038;-66
2022/04/21 09:22:49;;;;;;;22.58;7.78;;;25.90;51.50;;;;;;5031060;28;20076;-67
2022/04/21 09:25:14;;;;;;;7.28;6.57;;;25.00;51.10;;;;;;5031362;28;20034;-67
2022/04/21 09:27:45;;;;;;;8.52;7.25;;;24.70;52.10;;;;;;5014859;28;20068;-67
2022/04/21 09:30:14;;;;;;;9.13;6.50;;;25.30;51.30;;;;;;5033569;28;20071;-68
2022/04/21 09:32:42;;;;;;;7.05;6.40;;;24.80;51.30;;;;;;5034533;28;20039;-66
2022/04/21 09:35:09;;;;;;;8.65;7.20;;;23.70;52.40;;;;;;5034342;28;20025;-68
2022/04/21 09:37:49;;;;;;;7.70;6.85;;;23.40;53.70;;;;;;5092726;22;20044;-65
2022/04/21 09:40:19;;;;;;;9.65;6.68;;;24.50;52.90;;;;;;5080394;28;20075;-65
2022/04/21 09:42:53;;;;;;;8.18;6.32;;;25.80;51.40;;;;;;5079575;28;20024;-66
2022/04/21 09:48:16;;;;;;;7.70;6.13;;;25.90;49.30;;;;;;5097311;28;20030;-65
2022/04/21 09:50:42;;;;;;;7.88;7.07;;;24.90;51.00;;;;;;5097034;28;20024;-64
2022/04/21 09:53:08;;;;;;;7.50;6.82;;;25.10;51.20;;;;;;5096819;28;20357;-64
2022/04/21 09:55:34;;;;;;;8.00;6.22;;;24.40;51.80;;;;;;5096968;28;20020;-65
2022/04/21 09:58:06;;;;;;;7.63;6.75;;;24.70;52.30;;;;;;5097037;28;20069;-66
2022/04/21 10:00:36;;;;;;;7.05;6.35;;;25.50;51.30;;;;;;5096898;28;20559;-66
2022/04/21 10:03:03;;;;;;;9.25;6.78;;;24.90;52.20;;;;;;5078832;28;20512;-65
2022/04/21 10:05:31;;;;;;;7.78;5.32;;;24.80;51.50;;;;;;5097170;28;20042;-65
2022/04/21 10:08:00;;;;;;;5.07;4.57;;;24.70;51.50;;;;;;5080398;28;20024;-66
2022/04/21 10:10:27;;;;;;;5.10;4.15;;;24.70;51.40;;;;;;5081226;28;20074;-65
2022/04/21 10:12:57;;;;;;;6.07;4.88;;;24.10;51.70;;;;;;5102393;28;20039;-65
2022/04/21 10:15:24;;;;;;;7.03;3.72;;;23.70;52.20;;;;;;5085005;28;20376;-66
2022/04/21 10:17:50;;;;;;;3.92;3.60;;;23.90;52.00;;;;;;5101003;28;20032;-66
2022/04/21 10:20:15;;;;;;;7.32;3.90;;;24.30;52.00;;;;;;5099480;28;20024;-66
2022/04/21 10:22:42;;;;;;;3.92;3.50;;;25.50;50.90;;;;;;5098766;28;20028;-64
2022/04/21 10:25:09;;;;;;;3.45;3.15;;;25.60;50.00;;;;;;5098545;28;20059;-64
2022/04/21 10:27:35;;;;;;;3.53;3.22;;;25.50;50.40;;;;;;5096567;28;20031;-65
2022/04/21 10:30:01;;;;;;;4.55;3.00;;;25.80;49.60;;;;;;5095986;28;20028;-65
2022/04/21 10:32:50;;;;;;;4.05;3.65;;;23.70;51.20;;;;;;5096118;28;20472;-64
2022/04/21 10:35:22;;;;;;;3.40;3.10;;;22.00;54.40;;;;;;5096131;28;20017;-64
2022/04/21 10:38:14;;;;;;;2.90;2.65;;;22.00;55.20;;;;;;5078192;28;20051;-64
2022/04/21 10:41:10;;;;;;;4.38;2.67;;;22.50;53.70;;;;;;5094985;28;20039;-64
2022/04/21 10:43:48;;;;;;;3.67;2.53;;;22.60;53.50;;;;;;5096472;28;20039;-64
2022/04/21 10:46:24;;;;;;;2.90;2.33;;;22.10;53.80;;;;;;5077842;28;20507;-65
2022/04/21 10:48:50;;;;;;;;;;;22.00;54.10;;;;;;5097010;28;20043;-65
2022/04/21 10:57:35;;;;;;;5.68;2.70;;;20.90;56.00;;;;;;5096539;28;20519;-66
2022/04/21 11:00:05;;;;;;;3.78;1.52;;;21.20;55.60;;;;;;5078622;28;20035;-65
2022/04/21 11:02:46;;;;;;;5.05;3.70;;;21.60;54.30;;;;;;5078686;28;20357;-66
2022/04/21 11:05:34;;;;;;;5.70;3.10;;;20.80;55.90;;;;;;5079269;28;20032;-66
2022/04/21 11:08:03;;;;;;;3.95;2.60;;;20.10;56.60;;;;;;5081678;28;20476;-66
2022/04/21 11:10:42;;;;;;;2.55;2.25;;;19.40;58.50;;;;;;5101439;28;20027;-66
2022/04/21 11:13:14;;;;;;;5.03;2.60;;;18.90;59.70;;;;;;5096905;28;20031;-65
2022/04/21 11:15:53;;;;;;;2.78;2.22;;;18.30;60.40;;;;;;5077199;28;20111;-64
2022/04/21 11:18:29;;;;;;;8.38;2.83;;;18.00;61.20;;;;;;5096310;28;20496;-66
2022/04/21 11:21:26;;;;;;;4.90;2.55;;;17.80;61.90;;;;;;5097504;28;20367;-65
2022/04/21 11:23:52;;;;;;;5.72;3.15;;;17.50;63.10;;;;;;5100095;28;20024;-65
2022/04/21 11:26:25;;;;;;;3.83;2.93;;;17.40;63.30;;;;;;5098060;28;20068;-66
2022/04/21 11:28:51;;;;;;;3.97;3.10;;;17.20;64.40;;;;;;5097523;28;20277;-66
2022/04/21 11:31:20;;;;;;;8.10;3.05;;;17.10;64.80;;;;;;5077851;28;20024;-66
2022/04/21 11:33:46;;;;;;;5.00;3.38;;;16.90;63.40;;;;;;5077027;28;20078;-66
2022/04/21 11:36:13;;;;;;;9.18;3.85;;;16.80;64.90;;;;;;5077004;28;20476;-65
2022/04/21 11:38:41;;;;;;;4.50;3.30;;;16.60;65.80;;;;;;5094897;28;20581;-65
2022/04/21 11:41:08;;;;;;;3.70;2.53;;;16.60;66.50;;;;;;5095543;28;20490;-66
2022/04/21 11:43:38;;;;;;;5.05;3.17;;;16.60;66.90;;;;;;5095577;28;20031;-66
2022/04/21 11:46:05;;;;;;;3.72;3.00;;;16.70;66.80;;;;;;5095382;28;20042;-66
2022/04/21 11:48:40;;;;;;;4.22;3.38;;;16.90;67.20;;;;;;5094803;28;20111;-66
2022/04/21 11:51:07;;;;;;;9.50;4.55;;;16.90;66.40;;;;;;5100725;28;20050;-64
2022/04/21 11:53:40;;;;;;;6.22;4.03;;;17.00;66.70;;;;;;5097727;28;20063;-64
2022/04/21 11:56:07;;;;;;;4.45;3.72;;;17.20;66.40;;;;;;5077676;28;20388;-64
2022/04/21 11:58:34;;;;;;;12.95;4.38;;;17.30;66.00;;;;;;5094377;28;20020;-63
2022/04/21 12:06:39;;;;;;;4.45;3.60;;;16.70;67.20;;;;;;5100194;28;20038;-63
2022/04/21 12:09:26;;;;;;;5.15;3.97;;;16.80;67.60;;;;;;5081344;28;20054;-64
2022/04/21 12:11:57;;;;;;;5.90;3.80;;;17.00;67.20;;;;;;5081682;28;22327;-64
2022/04/21 12:14:24;;;;;;;4.82;4.13;;;17.00;67.40;;;;;;5098252;28;20040;-64
2022/04/21 12:16:55;;;;;;;6.15;2.85;;;16.90;67.70;;;;;;5096455;28;20028;-64
2022/04/21 12:19:26;;;;;;;4.95;3.55;;;17.20;68.20;;;;;;5095804;28;20027;-65
2022/04/21 12:22:00;;;;;;;5.03;3.63;;;17.40;67.00;;;;;;5095371;28;20042;-64
2022/04/21 12:24:30;;;;;;;5.30;4.10;;;17.30;67.80;;;;;;5076708;28;20025;-64
2022/04/21 12:26:57;;;;;;;5.13;3.95;;;17.40;67.10;;;;;;5094661;28;20027;-64
2022/04/21 12:29:23;;;;;;;3.90;3.47;;;17.50;67.20;;;;;;5076841;28;20069;-63
2022/04/21 12:31:54;;;;;;;6.53;3.67;;;17.30;67.40;;;;;;5096276;28;20016;-64
2022/04/21 12:34:27;;;;;;;4.22;3.40;;;17.10;68.20;;;;;;5094717;28;20115;-64
2022/04/21 12:36:55;;;;;;;6.45;4.20;;;17.20;67.90;;;;;;5094998;28;20055;-65
2022/04/21 12:39:21;;;;;;;5.43;4.18;;;17.10;67.60;;;;;;5094441;28;20028;-64
2022/04/21 12:41:47;;;;;;;;;;;17.20;67.80;;;;;;5076639;28;20056;-64
2022/04/21 12:44:14;;;;;;;4.75;3.30;;;17.20;67.80;;;;;;5094536;28;20348;-62
2022/04/21 12:46:41;;;;;;;5.40;3.15;;;17.30;68.10;;;;;;5094131;28;20539;-66
2022/04/21 12:49:08;;;;;;;4.45;3.83;;;17.20;68.20;;;;;;5094326;28;20024;-64
2022/04/21 12:51:33;;;;;;;5.75;4.13;;;17.00;68.40;;;;;;5075727;28;20025;-61
2022/04/21 12:53:59;;;;;;;5.72;3.40;;;17.00;68.40;;;;;;5075824;28;20578;-63
2022/04/21 12:56:35;;;;;;;4.03;3.15;;;17.20;68.40;;;;;;5075400;28;20055;-62
2022/04/21 12:59:02;;;;;;;4.93;3.30;;;17.40;68.00;;;;;;5075564;28;20023;-60
2022/04/21 13:01:28;;;;;;;5.80;3.78;;;17.40;67.90;;;;;;5075652;28;20050;-60
2022/04/21 13:03:54;;;;;;;5.50;4.20;;;17.10;68.20;;;;;;5094131;28;20423;-60
2022/04/21 13:06:27;;;;;;;5.80;3.67;;;17.00;69.00;;;;;;5098299;28;20028;-63
2022/04/21 13:08:54;;;;;;;5.50;4.13;;;17.00;68.50;;;;;;5098281;28;20020;-60
2022/04/21 13:11:20;;;;;;;5.10;3.80;;;16.80;69.00;;;;;;5097524;28;20035;-61
2022/04/21 13:13:45;;;;;;;4.97;3.67;;;16.80;69.10;;;;;;5098201;28;20024;-65
2022/04/21 13:16:11;;;;;;;7.75;3.50;;;17.00;68.90;;;;;;5097533;28;20035;-62
2022/04/21 13:18:36;;;;;;;4.05;3.25;;;17.10;67.80;;;;;;5079146;28;20362;-62
2022/04/21 13:23:46;;;;;;;5.70;3.38;;;17.20;68.40;;;;;;5097616;28;20110;-62
2022/04/21 13:26:12;;;;;;;6.23;3.60;;;17.30;68.30;;;;;;5098965;28;20491;-62
2022/04/21 13:28:37;;;;;;;6.13;3.38;;;17.40;69.40;;;;;;5082440;28;20023;-62
2022/04/21 13:33:47;;;;;;;4.47;3.22;;;17.30;69.80;;;;;;5102346;28;20054;-63
2022/04/21 13:36:13;;;;;;;5.95;4.07;;;17.30;69.60;;;;;;5100370;28;20020;-62
2022/04/21 13:38:39;;;;;;;;;;;17.40;69.50;;;;;;5100448;28;20115;-61
2022/04/21 13:41:04;;;;;;;6.78;3.80;;;17.30;69.60;;;;;;5098705;28;19958;-62
2022/04/21 13:43:30;;;;;;;5.70;3.72;;;17.40;69.70;;;;;;5097603;28;20036;-61
2022/04/21 13:46:00;;;;;;;5.10;3.85;;;17.50;69.80;;;;;;5097515;28;20070;-62
2022/04/21 13:48:25;;;;;;;5.20;4.07;;;17.50;70.30;;;;;;5078462;28;20028;-62
2022/04/21 13:50:51;;;;;;;6.60;3.92;;;17.10;69.90;;;;;;5098438;28;20142;-62
2022/04/21 13:53:17;;;;;;;7.00;3.92;;;17.00;70.40;;;;;;5098965;28;20115;-62
2022/04/21 13:55:43;;;;;;;6.75;3.90;;;17.10;70.50;;;;;;5097559;28;20081;-62